createdAt,value
2022-12-09T00:01:29.204Z,100818.02
2022-12-09T00:03:57.704Z,100819.65
2022-12-09T00:06:28.094Z,100819.68
2022-12-09T00:08:57.023Z,100814.98
2022-12-09T00:11:25.725Z,100816.22
2022-12-09T00:13:55.718Z,100827.74
2022-12-09T00:16:24.723Z,100821.18
2022-12-09T00:18:53.628Z,100822.84
2022-12-09T00:21:23.764Z,100824.64
2022-12-09T00:23:53.181Z,100821.35
2022-12-09T00:26:22.379Z,100831.63
2022-12-09T00:28:51.433Z,100837.23
2022-12-09T00:31:40.043Z,100842.30
2022-12-09T00:34:41.128Z,100856.17
2022-12-09T00:37:21.912Z,100861.71
2022-12-09T00:40:08.826Z,100844.61
2022-12-09T00:42:45.312Z,100844.83
2022-12-09T00:45:13.745Z,100852.67
2022-12-09T00:47:42.261Z,100855.67
2022-12-09T00:50:11.249Z,100847.63
2022-12-09T00:52:39.761Z,100845.23
2022-12-09T00:55:09.484Z,100849.95
2022-12-09T00:57:38.085Z,100861.84
2022-12-09T01:00:07.942Z,100870.19
2022-12-09T01:02:37.496Z,100861.67
2022-12-09T01:05:06.505Z,100864.84
2022-12-09T01:07:37.700Z,100859.98
2022-12-09T01:10:07.125Z,100857.80
2022-12-09T01:12:36.640Z,100852.01
2022-12-09T01:15:06.617Z,100854.19
2022-12-09T01:17:36.826Z,100847.45
2022-12-09T01:20:06.870Z,100837.48
2022-12-09T01:22:36.179Z,100833.99
2022-12-09T01:25:05.257Z,100836.29
2022-12-09T01:27:33.701Z,100834.60
2022-12-09T01:30:02.166Z,100829.52
2022-12-09T01:32:31.165Z,100831.37
2022-12-09T01:35:01.861Z,100850.84
2022-12-09T01:37:31.713Z,100855.63
2022-12-09T01:40:00.202Z,100847.64
2022-12-09T01:42:28.943Z,100849.73
2022-12-09T01:45:36.510Z,100845.80
2022-12-09T01:48:05.366Z,100843.27
2022-12-09T01:50:36.168Z,100840.58
2022-12-09T01:53:05.236Z,100842.17
2022-12-09T01:55:35.518Z,100839.64
2022-12-09T01:58:04.485Z,100833.63
2022-12-09T02:00:33.096Z,100834.83
2022-12-09T02:03:04.296Z,100843.42
2022-12-09T02:05:33.203Z,100858.16
2022-12-09T02:08:02.310Z,100862.28
2022-12-09T02:10:31.307Z,100865.08
2022-12-09T02:13:10.528Z,100856.80
2022-12-09T02:15:52.694Z,100860.33
2022-12-09T02:18:24.612Z,100850.42
2022-12-09T02:21:17.760Z,100853.05
2022-12-09T02:23:54.158Z,100854.70
2022-12-09T02:26:52.510Z,100851.70
2022-12-09T02:29:44.874Z,100843.81
2022-12-09T02:32:32.789Z,100857.43
2022-12-09T02:35:06.216Z,100859.31
2022-12-09T02:37:55.402Z,100847.31
2022-12-09T02:40:43.396Z,100819.08
2022-12-09T02:43:13.343Z,100830.30
2022-12-09T02:45:43.413Z,100843.55
2022-12-09T02:48:14.520Z,100840.95
2022-12-09T02:50:45.087Z,100825.79
2022-12-09T02:53:15.277Z,100817.66
2022-12-09T02:55:45.859Z,100817.27
2022-12-09T02:58:14.545Z,100811.59
2022-12-09T03:00:43.261Z,100802.50
2022-12-09T03:03:17.600Z,100793.21
2022-12-09T03:05:47.888Z,100792.05
2022-12-09T03:08:35.091Z,100797.36
2022-12-09T03:11:15.849Z,100803.96
2022-12-09T03:13:47.417Z,100803.64
2022-12-09T03:16:19.109Z,100807.21
2022-12-09T03:18:51.167Z,100804.94
2022-12-09T03:21:21.983Z,100812.30
2022-12-09T03:23:52.821Z,100794.67
2022-12-09T03:26:22.801Z,100793.77
2022-12-09T03:28:52.545Z,100796.88
2022-12-09T03:31:24.249Z,100799.42
2022-12-09T03:33:54.306Z,100801.87
2022-12-09T03:36:23.884Z,100797.83
2022-12-09T03:38:52.596Z,100804.80
2022-12-09T03:41:31.631Z,100807.16
2022-12-09T03:44:06.253Z,100814.93
2022-12-09T03:46:35.320Z,100828.73
2022-12-09T03:49:04.302Z,100845.35
2022-12-09T03:51:38.217Z,100855.61
2022-12-09T03:54:14.055Z,100847.71
2022-12-09T03:56:44.973Z,100824.89
2022-12-09T03:59:14.468Z,100821.24
2022-12-09T04:01:44.711Z,100831.61
2022-12-09T04:04:16.370Z,100833.52
2022-12-09T04:06:44.938Z,100823.20
2022-12-09T04:09:13.475Z,100819.68
2022-12-09T04:11:43.024Z,100819.95
2022-12-09T04:14:15.591Z,100814.99
2022-12-09T04:16:45.361Z,100812.38
2022-12-09T04:19:14.003Z,100814.85
2022-12-09T04:21:42.568Z,100830.45
2022-12-09T04:24:11.587Z,100829.19
2022-12-09T04:26:40.117Z,100830.45
2022-12-09T04:29:09.990Z,100830.55
2022-12-09T04:31:39.641Z,100831.88
2022-12-09T04:34:09.777Z,100835.59
2022-12-09T04:36:38.920Z,100834.33
2022-12-09T04:39:07.679Z,100831.41
2022-12-09T04:41:37.081Z,100834.80
2022-12-09T04:44:05.955Z,100833.23
2022-12-09T04:46:35.015Z,100842.92
2022-12-09T04:49:04.171Z,100841.11
2022-12-09T04:51:39.057Z,100848.68
2022-12-09T04:54:13.075Z,100854.65
2022-12-09T04:56:41.799Z,100858.83
2022-12-09T04:59:10.439Z,100856.57
2022-12-09T05:01:39.285Z,100855.77
2022-12-09T05:04:08.097Z,100852.95
2022-12-09T05:06:36.758Z,100851.77
2022-12-09T05:09:05.914Z,100859.90
2022-12-09T05:11:35.204Z,100866.07
2022-12-09T05:14:04.357Z,100861.52
2022-12-09T05:16:33.688Z,100843.71
2022-12-09T05:19:02.479Z,100839.10
2022-12-09T05:21:31.387Z,100847.23
2022-12-09T05:24:02.446Z,100848.04
2022-12-09T05:26:31.136Z,100840.96
2022-12-09T05:28:59.686Z,100856.80
2022-12-09T05:31:28.383Z,100863.41
2022-12-09T05:33:57.219Z,100872.20
2022-12-09T05:36:27.812Z,100872.60
2022-12-09T05:38:56.618Z,100870.07
2022-12-09T05:41:25.945Z,100870.73
2022-12-09T05:43:54.838Z,100872.49
2022-12-09T05:46:23.833Z,100884.26
2022-12-09T05:48:53.135Z,100884.20
2022-12-09T05:51:23.339Z,100896.52
2022-12-09T05:53:53.102Z,100895.04
2022-12-09T05:56:22.641Z,100886.11
2022-12-09T05:58:51.689Z,100890.81
2022-12-09T06:01:21.421Z,100890.29
2022-12-09T06:03:52.109Z,100904.69
2022-12-09T06:06:21.981Z,100907.74
2022-12-09T06:08:55.064Z,100894.80
2022-12-09T06:11:24.184Z,100894.33
2022-12-09T06:13:54.136Z,100888.53
2022-12-09T06:16:23.411Z,100886.92
2022-12-09T06:18:52.604Z,100893.02
2022-12-09T06:21:22.171Z,100895.04
2022-12-09T06:23:51.559Z,100896.02
2022-12-09T06:26:22.218Z,100901.48
2022-12-09T06:28:51.491Z,100902.15
2022-12-09T06:31:20.542Z,100904.73
2022-12-09T06:33:55.412Z,100907.33
2022-12-09T06:36:25.395Z,100912.77
2022-12-09T06:38:54.724Z,100916.73
2022-12-09T06:41:23.371Z,100926.44
2022-12-09T06:43:52.063Z,100930.99
2022-12-09T06:46:25.419Z,100942.12
2022-12-09T06:48:55.680Z,100945.27
2022-12-09T06:51:25.374Z,100938.01
2022-12-09T06:53:54.389Z,100934.52
2022-12-09T06:56:24.016Z,100934.61
2022-12-09T06:58:52.847Z,100930.96
2022-12-09T07:01:23.223Z,100939.11
2022-12-09T07:03:53.341Z,100928.96
2022-12-09T07:06:39.213Z,100924.47
2022-12-09T07:09:18.860Z,100920.21
2022-12-09T07:11:48.875Z,100923.65
2022-12-09T07:14:19.136Z,100922.95
2022-12-09T07:16:48.343Z,100919.86
2022-12-09T07:19:19.092Z,100912.60
2022-12-09T07:21:48.622Z,100913.52
2022-12-09T07:24:19.367Z,100909.02
2022-12-09T07:26:48.704Z,100908.57
2022-12-09T07:29:18.644Z,100908.71
2022-12-09T07:31:48.698Z,100905.44
2022-12-09T07:34:18.513Z,100911.04
2022-12-09T07:36:47.551Z,100912.84
2022-12-09T07:39:17.750Z,100911.36
2022-12-09T07:41:48.783Z,100913.79
2022-12-09T07:44:18.078Z,100911.99
2022-12-09T07:46:47.045Z,100917.33
2022-12-09T07:49:16.063Z,100923.81
2022-12-09T07:51:45.292Z,100921.52
2022-12-09T07:54:15.287Z,100925.27
2022-12-09T07:56:44.191Z,100925.96
2022-12-09T07:59:13.862Z,100923.77
2022-12-09T08:01:42.858Z,100929.39
2022-12-09T08:04:12.126Z,100934.31
2022-12-09T08:06:41.415Z,100943.46
2022-12-09T08:09:12.312Z,100943.58
2022-12-09T08:11:41.767Z,100939.80
2022-12-09T08:14:12.823Z,100944.61
2022-12-09T08:16:43.783Z,100942.81
2022-12-09T08:19:13.611Z,100935.66
2022-12-09T08:21:42.806Z,100933.50
2022-12-09T08:24:12.726Z,100938.90
2022-12-09T08:26:42.181Z,100936.89
2022-12-09T08:29:12.031Z,100938.92
2022-12-09T08:31:42.329Z,100941.75
2022-12-09T08:34:11.975Z,100934.30
2022-12-09T08:36:40.867Z,100930.89
2022-12-09T08:39:10.909Z,100934.91
2022-12-09T08:41:40.440Z,100938.18
2022-12-09T08:44:14.657Z,100939.25
2022-12-09T08:46:44.979Z,100935.60
2022-12-09T08:49:19.336Z,100934.02
2022-12-09T08:51:49.289Z,100927.27
2022-12-09T08:54:18.302Z,100923.70
2022-12-09T08:56:48.480Z,100919.88
2022-12-09T08:59:17.726Z,100917.10
2022-12-09T09:01:46.581Z,100916.34
2022-12-09T09:04:17.271Z,100913.25
2022-12-09T09:06:48.636Z,100912.44
2022-12-09T09:09:18.531Z,100913.63
2022-12-09T09:11:48.067Z,100914.31
2022-12-09T09:14:17.516Z,100909.05
2022-12-09T09:16:47.177Z,100913.06
2022-12-09T09:19:17.603Z,100907.56
2022-12-09T09:21:46.426Z,100903.13
2022-12-09T09:24:16.779Z,100901.65
2022-12-09T09:26:45.777Z,100907.38
2022-12-09T09:29:15.294Z,100908.02
2022-12-09T09:31:44.954Z,100908.04
2022-12-09T09:34:14.056Z,100906.04
2022-12-09T09:36:42.910Z,100902.18
2022-12-09T09:39:11.845Z,100901.50
2022-12-09T09:41:50.963Z,100895.67
2022-12-09T09:44:40.369Z,100889.27
2022-12-09T09:47:12.619Z,100883.35
2022-12-09T09:49:48.541Z,100878.95
2022-12-09T09:52:19.076Z,100875.08
2022-12-09T09:54:47.417Z,100865.05
2022-12-09T09:57:26.901Z,100858.92
2022-12-09T10:00:28.024Z,100852.95
2022-12-09T10:03:01.729Z,100850.08
2022-12-09T10:05:33.003Z,100857.23
2022-12-09T10:08:17.411Z,100853.14
2022-12-09T10:10:58.865Z,100858.35
2022-12-09T10:13:31.094Z,100855.63
2022-12-09T10:16:13.203Z,100846.38
2022-12-09T10:19:08.107Z,100855.77
2022-12-09T10:21:41.082Z,100850.67
2022-12-09T10:24:34.209Z,100846.23
2022-12-09T10:27:12.611Z,100832.77
2022-12-09T10:29:47.782Z,100823.60
2022-12-09T10:32:25.708Z,100827.09
2022-12-09T10:34:55.085Z,100823.53
2022-12-09T10:37:26.056Z,100812.80
2022-12-09T10:40:01.508Z,100810.84
2022-12-09T10:42:50.549Z,100811.11
2022-12-09T10:45:19.644Z,100797.71
2022-12-09T10:47:53.056Z,100787.67
2022-12-09T10:50:33.352Z,100777.62
2022-12-09T10:53:07.573Z,100773.23
2022-12-09T10:55:38.148Z,100771.66
2022-12-09T10:58:23.842Z,100768.85
2022-12-09T11:01:10.350Z,100765.91
2022-12-09T11:03:48.254Z,100758.42
2022-12-09T11:06:17.237Z,100755.81
2022-12-09T11:08:54.407Z,100751.34
2022-12-09T11:11:40.299Z,100751.70
2022-12-09T11:14:27.221Z,100749.13
2022-12-09T11:16:58.147Z,100749.45
2022-12-09T11:19:47.361Z,100745.06
2022-12-09T11:22:29.193Z,100745.13
2022-12-09T11:25:12.100Z,100745.39
2022-12-09T11:27:43.338Z,100738.96
2022-12-09T11:30:18.289Z,100739.28
2022-12-09T11:32:53.655Z,100728.77
2022-12-09T11:35:34.090Z,100724.14
2022-12-09T11:38:04.741Z,100722.15
2022-12-09T11:40:33.166Z,100725.23
2022-12-09T11:43:02.692Z,100722.83
2022-12-09T11:45:33.873Z,100722.41
2022-12-09T11:48:30.275Z,100723.61
2022-12-09T11:51:02.685Z,100732.62
2022-12-09T11:53:32.873Z,100730.81
2022-12-09T11:56:08.456Z,100729.52
2022-12-09T11:58:43.259Z,100725.00
2022-12-09T12:01:14.532Z,100725.48
2022-12-09T12:03:50.248Z,100728.67
2022-12-09T12:06:23.846Z,100738.90
2022-12-09T12:09:05.262Z,100745.61
2022-12-09T12:11:40.923Z,100739.61
2022-12-09T12:14:25.549Z,100746.14
2022-12-09T12:16:59.943Z,100739.02
2022-12-09T12:19:33.808Z,100733.34
2022-12-09T12:22:11.507Z,100725.95
2022-12-09T12:24:42.549Z,100729.44
2022-12-09T12:27:10.963Z,100732.38
2022-12-09T12:29:42.074Z,100727.91
2022-12-09T12:32:10.700Z,100728.23
2022-12-09T12:34:48.563Z,100729.39
2022-12-09T12:37:36.907Z,100728.35
2022-12-09T12:40:06.010Z,100725.70
2022-12-09T12:43:16.267Z,100724.89
2022-12-09T12:46:07.825Z,100720.40
2022-12-09T12:48:45.320Z,100722.98
2022-12-09T12:51:16.443Z,100728.63
2022-12-09T12:53:57.564Z,100734.00
2022-12-09T12:56:46.261Z,100724.61
2022-12-09T12:59:23.245Z,100721.63
2022-12-09T13:01:59.577Z,100717.16
2022-12-09T13:04:39.016Z,100718.19
2022-12-09T13:07:22.994Z,100719.30
2022-12-09T13:10:09.423Z,100714.30
2022-12-09T13:12:56.763Z,100719.14
2022-12-09T13:15:32.617Z,100726.48
2022-12-09T13:18:05.358Z,100732.09
2022-12-09T13:20:38.414Z,100735.40
2022-12-09T13:23:27.205Z,100732.34
2022-12-09T13:26:14.427Z,100737.02
2022-12-09T13:28:48.654Z,100735.88
2022-12-09T13:31:18.734Z,100735.00
2022-12-09T13:33:50.486Z,100728.67
2022-12-09T13:36:42.147Z,100732.55
2022-12-09T13:39:12.368Z,100732.30
2022-12-09T13:42:08.397Z,100731.88
2022-12-09T13:44:37.699Z,100735.39
2022-12-09T13:47:26.149Z,100732.24
2022-12-09T13:50:03.310Z,100730.27
2022-12-09T13:52:52.398Z,100724.34
2022-12-09T13:55:28.261Z,100720.11
2022-12-09T13:58:17.012Z,100725.23
2022-12-09T14:01:04.286Z,100723.11
2022-12-09T14:03:35.593Z,100719.09
2022-12-09T14:06:07.406Z,100720.51
2022-12-09T14:08:40.024Z,100721.06
2022-12-09T14:11:27.346Z,100716.27
2022-12-09T14:14:15.489Z,100711.89
2022-12-09T14:16:44.790Z,100713.12
2022-12-09T14:19:25.562Z,100712.79
2022-12-09T14:22:16.672Z,100711.48
2022-12-09T14:24:45.768Z,100702.96
2022-12-09T14:27:15.276Z,100699.56
2022-12-09T14:29:55.022Z,100701.70
2022-12-09T14:32:23.502Z,100697.21
2022-12-09T14:35:12.283Z,100699.48
2022-12-09T14:37:42.687Z,100693.74
2022-12-09T14:40:14.484Z,100692.44
2022-12-09T14:42:59.416Z,100702.35
2022-12-09T14:45:37.421Z,100704.69
2022-12-09T14:48:10.675Z,100697.38
2022-12-09T14:50:39.522Z,100692.02
2022-12-09T14:53:11.027Z,100690.70
2022-12-09T14:55:40.736Z,100683.08
2022-12-09T14:58:17.819Z,100677.90
2022-12-09T15:00:46.808Z,100682.19
2022-12-09T15:03:42.936Z,100686.46
2022-12-09T15:06:12.812Z,100688.58
2022-12-09T15:08:41.586Z,100689.25
2022-12-09T15:11:14.157Z,100693.09
2022-12-09T15:13:48.288Z,100687.96
2022-12-09T15:16:18.873Z,100684.87
2022-12-09T15:18:47.795Z,100683.55
2022-12-09T15:21:26.210Z,100686.05
2022-12-09T15:23:55.308Z,100689.66
2022-12-09T15:26:25.894Z,100684.14
2022-12-09T15:28:56.537Z,100678.31
2022-12-09T15:31:29.766Z,100674.89
2022-12-09T15:34:00.601Z,100671.56
2022-12-09T15:36:29.390Z,100669.55
2022-12-09T15:39:03.197Z,100666.08
2022-12-09T15:41:57.484Z,100661.60
2022-12-09T15:44:27.194Z,100656.55
2022-12-09T15:46:57.639Z,100648.92
2022-12-09T15:49:29.961Z,100644.86
2022-12-09T15:52:00.657Z,100645.92
2022-12-09T15:54:36.280Z,100647.36
2022-12-09T15:57:07.432Z,100646.91
2022-12-09T15:59:39.487Z,100638.79
2022-12-09T16:02:10.314Z,100639.18
2022-12-09T16:04:43.720Z,100645.65
2022-12-09T16:07:13.637Z,100646.45
2022-12-09T16:09:42.324Z,100635.68
2022-12-09T16:12:27.256Z,100632.36
2022-12-09T16:14:55.895Z,100628.45
2022-12-09T16:17:29.274Z,100625.14
2022-12-09T16:19:58.472Z,100618.88
2022-12-09T16:22:31.215Z,100620.35
2022-12-09T16:25:15.426Z,100622.20
2022-12-09T16:27:45.999Z,100618.41
2022-12-09T16:30:19.442Z,100611.09
2022-12-09T16:32:50.781Z,100605.23
2022-12-09T16:35:28.064Z,100602.55
2022-12-09T16:37:56.860Z,100598.02
2022-12-09T16:40:25.342Z,100596.09
2022-12-09T16:42:54.770Z,100586.24
2022-12-09T16:45:30.179Z,100593.83
2022-12-09T16:47:59.529Z,100591.02
2022-12-09T16:50:29.960Z,100589.11
2022-12-09T16:52:59.015Z,100586.52
2022-12-09T16:55:31.184Z,100581.24
2022-12-09T16:58:00.096Z,100581.61
2022-12-09T17:00:28.657Z,100579.09
2022-12-09T17:02:59.804Z,100577.90
2022-12-09T17:05:28.416Z,100575.77
2022-12-09T17:07:56.895Z,100566.88
2022-12-09T17:10:25.455Z,100567.20
2022-12-09T17:12:54.436Z,100563.05
2022-12-09T17:15:22.965Z,100561.42
2022-12-09T17:17:51.410Z,100550.63
2022-12-09T17:20:20.114Z,100545.56
2022-12-09T17:22:48.509Z,100540.98
2022-12-09T17:25:16.960Z,100544.80
2022-12-09T17:27:45.440Z,100539.52
2022-12-09T17:30:14.214Z,100537.77
2022-12-09T17:32:42.814Z,100537.38
2022-12-09T17:35:12.958Z,100536.73
2022-12-09T17:37:42.953Z,100533.53
2022-12-09T17:40:51.167Z,100529.02
2022-12-09T17:43:59.761Z,100522.30
2022-12-09T17:47:07.798Z,100518.41
2022-12-09T17:49:36.483Z,100521.70
2022-12-09T17:52:04.964Z,100525.48
2022-12-09T17:54:33.472Z,100531.38
2022-12-09T17:57:01.828Z,100534.07
2022-12-09T17:59:30.413Z,100540.41
2022-12-09T18:01:58.610Z,100551.25
2022-12-09T18:04:26.964Z,100556.33
2022-12-09T18:06:55.753Z,100559.61
2022-12-09T18:09:24.338Z,100558.17
2022-12-09T18:11:53.054Z,100554.41
2022-12-09T18:14:22.588Z,100550.26
2022-12-09T18:16:52.121Z,100540.02
2022-12-09T18:19:23.795Z,100533.85
2022-12-09T18:21:56.785Z,100537.40
2022-12-09T18:24:25.336Z,100533.75
2022-12-09T18:26:53.747Z,100533.05
2022-12-09T18:29:23.253Z,100534.70
2022-12-09T18:31:56.240Z,100538.16
2022-12-09T18:34:25.441Z,100530.86
2022-12-09T18:36:53.923Z,100526.22
2022-12-09T18:39:22.302Z,100519.72
2022-12-09T18:41:50.987Z,100525.04
2022-12-09T18:44:19.264Z,100528.67
2022-12-09T18:46:49.244Z,100525.04
2022-12-09T18:49:24.025Z,100522.36
2022-12-09T18:51:53.211Z,100524.75
2022-12-09T18:54:27.583Z,100518.41
2022-12-09T18:56:56.634Z,100509.92
2022-12-09T18:59:27.973Z,100510.55
2022-12-09T19:01:56.525Z,100509.96
2022-12-09T19:04:26.233Z,100507.51
2022-12-09T19:06:56.186Z,100508.68
2022-12-09T19:09:26.714Z,100504.63
2022-12-09T19:12:56.310Z,100497.93
2022-12-09T19:16:03.313Z,100500.13
2022-12-09T19:18:32.064Z,100497.36
2022-12-09T19:21:10.418Z,100492.39
2022-12-09T19:23:39.921Z,100492.67
2022-12-09T19:26:12.605Z,100493.23
2022-12-09T19:28:46.614Z,100487.27
2022-12-09T19:31:16.368Z,100482.05
2022-12-09T19:33:44.807Z,100476.19
2022-12-09T19:36:13.698Z,100476.32
2022-12-09T19:38:42.794Z,100475.27
2022-12-09T19:41:11.483Z,100474.46
2022-12-09T19:43:39.962Z,100470.19
2022-12-09T19:46:09.804Z,100470.67
2022-12-09T19:48:39.590Z,100463.98
2022-12-09T19:51:09.503Z,100466.98
2022-12-09T19:53:37.884Z,100463.38
2022-12-09T19:56:07.859Z,100461.74
2022-12-09T19:59:15.991Z,100450.66
2022-12-09T20:02:24.269Z,100446.27
2022-12-09T20:05:32.849Z,100445.72
2022-12-09T20:08:41.268Z,100451.60
2022-12-09T20:11:49.685Z,100449.02
2022-12-09T20:14:58.107Z,100445.35
2022-12-09T20:18:06.245Z,100432.84
2022-12-09T20:21:14.423Z,100431.26
2022-12-09T20:24:22.745Z,100438.03
2022-12-09T20:27:31.194Z,100441.39
2022-12-09T20:30:30.161Z,100430.94
2022-12-09T20:33:38.479Z,100431.18
2022-12-09T20:36:46.866Z,100423.52
2022-12-09T20:39:55.209Z,100428.90
2022-12-09T20:43:03.730Z,100431.13
2022-12-09T20:46:12.406Z,100423.94
2022-12-09T20:49:20.874Z,100425.40
2022-12-09T20:52:29.089Z,100423.34
2022-12-09T20:55:37.506Z,100423.39
2022-12-09T20:58:46.026Z,100419.77
2022-12-09T21:01:57.314Z,100421.82
2022-12-09T21:05:05.733Z,100422.44
2022-12-09T21:12:11.521Z,100407.19
2022-12-09T21:15:19.660Z,100408.10
2022-12-09T21:18:28.045Z,100399.03
2022-12-09T21:21:36.416Z,100386.16
